Time,TemperatureF,DewpointF,PressureIn,WindDirection,WindDirectionDegrees,WindSpeedMPH,WindSpeedGustMPH,Humidity,HourlyPrecipIn,Conditions,Clouds,dailyrainin,SoftwareType,DateUTC
2013-06-26 00:00:00,64.5,58.9,29.44,SW,225,0.0,0.0,82,0.00,,,-99.99,VWS V12.07,2013-06-26 05:00:00,
2013-06-26 00:05:00,64.4,58.8,29.44,SW,225,0.0,0.0,82,0.00,,,-99.99,VWS V12.07,2013-06-26 05:05:00,
2013-06-26 00:10:00,64.4,59.1,29.44,SW,225,0.0,0.0,83,0.00,,,-99.99,VWS V12.07,2013-06-26 05:10:00,
2013-06-26 00:15:00,64.2,58.9,29.44,SW,225,0.0,0.0,83,0.00,,,-99.99,VWS V12.07,2013-06-26 05:15:00,
2013-06-26 00:20:00,64.2,58.9,29.44,SW,225,0.0,0.0,83,0.00,,,-99.99,VWS V12.07,2013-06-26 05:20:00,
2013-06-26 00:25:00,64.2,58.9,29.44,SW,225,0.0,0.0,83,0.00,,,-99.99,VWS V12.07,2013-06-26 05:25:00,
2013-06-26 00:30:00,64.0,58.7,29.44,SW,225,0.0,0.0,83,0.00,,,-99.99,VWS V12.07,2013-06-26 05:30:00,
2013-06-26 00:35:00,63.8,58.5,29.44,SW,225,0.0,0.0,83,0.00,,,-99.99,VWS V12.07,2013-06-26 05:35:00,
2013-06-26 00:40:00,63.6,58.3,29.44,SW,225,0.0,0.0,83,0.00,,,-99.99,VWS V12.07,2013-06-26 05:40:00,
2013-06-26 00:45:00,63.6,58.3,29.44,SW,225,0.0,0.0,83,0.00,,,-99.99,VWS V12.07,2013-06-26 05:45:00,
2013-06-26 00:50:00,63.5,58.2,29.44,SW,225,0.0,0.0,83,0.00,,,-99.99,VWS V12.07,2013-06-26 05:50:00,
2013-06-26 00:55:00,63.5,58.2,29.44,SW,225,0.0,0.0,83,0.00,,,-99.99,VWS V12.07,2013-06-26 05:55:00,
2013-06-26 01:00:00,63.3,58.1,29.44,SW,225,0.0,0.0,83,0.00,,,-99.99,VWS V12.07,2013-06-26 06:00:00,
2013-06-26 01:05:00,63.3,58.4,29.44,SW,225,0.0,0.0,84,0.00,,,-99.99,VWS V12.07,2013-06-26 06:05:00,
2013-06-26 01:10:00,63.3,58.4,29.44,SW,225,0.0,0.0,84,0.00,,,-99.99,VWS V12.07,2013-06-26 06:10:00,
2013-06-26 01:15:00,63.3,58.4,29.43,SW,225,0.0,0.0,84,0.00,,,-99.99,VWS V12.07,2013-06-26 06:15:00,
2013-06-26 01:20:00,63.3,58.4,29.43,SW,225,0.0,0.0,84,0.00,,,-99.99,VWS V12.07,2013-06-26 06:20:00,
2013-06-26 01:25:00,63.1,58.2,29.44,SW,225,0.0,0.0,84,0.00,,,-99.99,VWS V12.07,2013-06-26 06:25:00,
2013-06-26 01:30:00,62.9,58.0,29.44,SW,225,0.0,0.0,84,0.00,,,-99.99,VWS V12.07,2013-06-26 06:30:00,
2013-06-26 01:35:00,62.7,57.8,29.43,SW,225,0.0,0.0,84,0.00,,,-99.99,VWS V12.07,2013-06-26 06:35:00,
2013-06-26 01:40:00,62.4,57.5,29.43,SW,225,0.0,0.0,84,0.00,,,-99.99,VWS V12.07,2013-06-26 06:40:00,
2013-06-26 01:45:00,62.4,57.5,29.44,SW,225,0.0,0.0,84,0.00,,,-99.99,VWS V12.07,2013-06-26 06:45:00,
2013-06-26 01:50:00,62.4,57.8,29.44,SW,225,0.0,0.0,85,0.00,,,-99.99,VWS V12.07,2013-06-26 06:50:00,
2013-06-26 01:55:00,62.4,57.8,29.43,SW,225,0.0,0.0,85,0.00,,,-99.99,VWS V12.07,2013-06-26 06:55:00,
2013-06-26 02:00:00,62.4,57.8,29.43,SW,225,0.0,0.0,85,0.00,,,-99.99,VWS V12.07,2013-06-26 07:00:00,
2013-06-26 02:05:00,62.4,57.8,29.43,SW,225,0.0,0.0,85,0.00,,,-99.99,VWS V12.07,2013-06-26 07:05:00,
2013-06-26 02:10:00,62.4,57.8,29.43,SW,225,0.0,0.0,85,0.00,,,-99.99,VWS V12.07,2013-06-26 07:10:00,
2013-06-26 02:15:00,62.4,57.8,29.43,SW,225,0.0,0.0,85,0.00,,,-99.99,VWS V12.07,2013-06-26 07:15:00,
2013-06-26 02:20:00,62.4,57.8,29.43,SW,225,0.0,0.0,85,0.00,,,-99.99,VWS V12.07,2013-06-26 07:20:00,
2013-06-26 02:25:00,62.4,57.8,29.43,SW,225,0.0,0.0,85,0.00,,,-99.99,VWS V12.07,2013-06-26 07:25:00,
2013-06-26 02:30:00,62.4,57.8,29.43,SW,225,0.0,0.0,85,0.00,,,-99.99,VWS V12.07,2013-06-26 07:30:00,
2013-06-26 02:35:00,62.4,57.8,29.43,SW,225,0.0,0.0,85,0.00,,,-99.99,VWS V12.07,2013-06-26 07:35:00,
2013-06-26 02:40:00,62.4,58.2,29.42,SW,225,0.0,0.0,86,0.00,,,-99.99,VWS V12.07,2013-06-26 07:40:00,
2013-06-26 02:45:00,62.4,58.2,29.42,SW,225,0.0,0.0,86,0.00,,,-99.99,VWS V12.07,2013-06-26 07:45:00,
2013-06-26 02:50:00,62.4,58.2,29.43,SW,225,0.0,0.0,86,0.00,,,-99.99,VWS V12.07,2013-06-26 07:50:00,
2013-06-26 02:55:00,62.4,58.2,29.42,SW,225,0.0,0.0,86,0.00,,,-99.99,VWS V12.07,2013-06-26 07:55:00,
2013-06-26 03:00:00,62.4,58.2,29.42,SW,225,0.0,0.0,86,0.00,,,-99.99,VWS V12.07,2013-06-26 08:00:00,
2013-06-26 03:05:00,62.4,58.2,29.42,SW,225,0.0,0.0,86,0.00,,,-99.99,VWS V12.07,2013-06-26 08:05:00,
2013-06-26 03:10:00,62.4,58.5,29.43,SW,225,0.0,0.0,87,0.00,,,-99.99,VWS V12.07,2013-06-26 08:10:00,
2013-06-26 03:15:00,62.4,58.5,29.42,SW,225,0.0,0.0,87,0.00,,,-99.99,VWS V12.07,2013-06-26 08:15:00,
2013-06-26 03:20:00,62.2,58.3,29.43,SW,225,0.0,0.0,87,0.00,,,-99.99,VWS V12.07,2013-06-26 08:20:00,
2013-06-26 03:25:00,62.2,58.3,29.42,SW,225,0.0,0.0,87,0.00,,,-99.99,VWS V12.07,2013-06-26 08:25:00,
2013-06-26 03:30:00,62.2,58.3,29.43,SW,225,0.0,0.0,87,0.00,,,-99.99,VWS V12.07,2013-06-26 08:30:00,
2013-06-26 03:35:00,62.2,58.3,29.42,SW,225,0.0,0.0,87,0.00,,,-99.99,VWS V12.07,2013-06-26 08:35:00,
2013-06-26 03:40:00,62.0,58.1,29.42,SW,225,0.0,0.0,87,0.00,,,-99.99,VWS V12.07,2013-06-26 08:40:00,
2013-06-26 03:45:00,62.0,58.1,29.42,SW,225,0.0,0.0,87,0.00,,,-99.99,VWS V12.07,2013-06-26 08:45:00,
2013-06-26 03:50:00,61.8,57.9,29.42,SW,225,0.0,0.0,87,0.00,,,-99.99,VWS V12.07,2013-06-26 08:50:00,
2013-06-26 03:55:00,61.8,57.9,29.42,SW,225,0.0,0.0,87,0.00,,,-99.99,VWS V12.07,2013-06-26 08:55:00,
2013-06-26 04:00:00,61.8,57.9,29.42,SW,225,0.0,0.0,87,0.00,,,-99.99,VWS V12.07,2013-06-26 09:00:00,
2013-06-26 04:05:00,61.8,57.9,29.42,SW,225,0.0,0.0,87,0.00,,,-99.99,VWS V12.07,2013-06-26 09:05:00,
2013-06-26 04:10:00,61.7,57.8,29.42,SW,225,0.0,0.0,87,0.00,,,-99.99,VWS V12.07,2013-06-26 09:10:00,
2013-06-26 04:20:00,61.7,57.8,29.42,SW,225,0.0,0.0,87,0.00,,,-99.99,VWS V12.07,2013-06-26 09:20:00,
2013-06-26 04:25:00,61.7,57.8,29.42,SW,225,0.0,0.0,87,0.00,,,-99.99,VWS V12.07,2013-06-26 09:25:00,
2013-06-26 04:30:00,61.7,57.8,29.42,SW,225,0.0,0.0,87,0.00,,,-99.99,VWS V12.07,2013-06-26 09:30:00,
2013-06-26 04:35:00,61.5,57.9,29.42,SW,225,0.0,0.0,88,0.00,,,-99.99,VWS V12.07,2013-06-26 09:35:00,
2013-06-26 04:40:00,61.5,57.9,29.42,SW,225,0.0,0.0,88,0.00,,,-99.99,VWS V12.07,2013-06-26 09:40:00,
2013-06-26 04:45:00,61.5,57.9,29.42,SW,225,0.0,0.0,88,0.00,,,-99.99,VWS V12.07,2013-06-26 09:45:00,
2013-06-26 04:50:00,61.5,57.9,29.42,SW,225,0.0,0.0,88,0.00,,,-99.99,VWS V12.07,2013-06-26 09:50:00,
2013-06-26 04:55:00,61.1,57.5,29.42,SW,225,0.0,0.0,88,0.00,,,-99.99,VWS V12.07,2013-06-26 09:55:00,
2013-06-26 05:00:00,60.9,57.3,29.42,SW,225,0.0,0.0,88,0.00,,,-99.99,VWS V12.07,2013-06-26 10:00:00,
2013-06-26 05:05:00,60.6,57.0,29.42,SW,225,0.0,0.0,88,0.00,,,-99.99,VWS V12.07,2013-06-26 10:05:00,
2013-06-26 05:10:00,60.6,57.0,29.42,SW,225,0.0,0.0,88,0.00,,,-99.99,VWS V12.07,2013-06-26 10:10:00,
2013-06-26 05:15:00,60.6,56.7,29.42,SW,225,0.0,0.0,87,0.00,,,-99.99,VWS V12.07,2013-06-26 10:15:00,
2013-06-26 05:20:00,60.4,56.8,29.41,SW,225,0.0,0.0,88,0.00,,,-99.99,VWS V12.07,2013-06-26 10:20:00,
2013-06-26 05:25:00,60.6,57.0,29.42,SW,225,0.0,0.0,88,0.00,,,-99.99,VWS V12.07,2013-06-26 10:25:00,
2013-06-26 05:30:00,60.6,57.0,29.42,SW,225,0.0,0.0,88,0.00,,,-99.99,VWS V12.07,2013-06-26 10:30:00,
2013-06-26 05:40:00,61.5,58.2,29.42,SW,225,0.0,0.0,89,0.00,,,-99.99,VWS V12.07,2013-06-26 10:40:00,
2013-06-26 05:45:00,61.7,58.4,29.42,SW,225,0.0,0.0,89,0.00,,,-99.99,VWS V12.07,2013-06-26 10:45:00,
2013-06-26 05:50:00,61.8,58.5,29.42,SW,225,0.0,0.0,89,0.00,,,-99.99,VWS V12.07,2013-06-26 10:50:00,
2013-06-26 05:55:00,62.2,58.9,29.41,SW,225,0.0,0.0,89,0.00,,,-99.99,VWS V12.07,2013-06-26 10:55:00,
2013-06-26 06:00:00,62.4,59.1,29.41,SW,225,0.0,0.0,89,0.00,,,-99.99,VWS V12.07,2013-06-26 11:00:00,
2013-06-26 06:05:00,62.6,59.3,29.41,SW,225,0.0,0.0,89,0.00,,,-99.99,VWS V12.07,2013-06-26 11:05:00,
2013-06-26 06:10:00,62.7,59.4,29.41,SW,225,0.0,0.0,89,0.00,,,-99.99,VWS V12.07,2013-06-26 11:10:00,
2013-06-26 06:15:00,62.9,59.6,29.41,SW,225,0.0,0.0,89,0.00,,,-99.99,VWS V12.07,2013-06-26 11:15:00,
2013-06-26 06:20:00,63.1,59.8,29.41,SW,225,0.0,0.0,89,0.00,,,-99.99,VWS V12.07,2013-06-26 11:20:00,
2013-06-26 06:25:00,63.1,59.8,29.41,SW,225,0.0,0.0,89,0.00,,,-99.99,VWS V12.07,2013-06-26 11:25:00,
2013-06-26 06:30:00,63.3,60.0,29.42,SW,225,0.0,0.0,89,0.00,,,-99.99,VWS V12.07,2013-06-26 11:30:00,
2013-06-26 06:35:00,63.5,60.5,29.42,SW,225,0.0,0.0,90,0.00,,,-99.99,VWS V12.07,2013-06-26 11:35:00,
2013-06-26 06:40:00,63.6,60.6,29.42,SW,225,0.0,0.0,90,0.00,,,-99.99,VWS V12.07,2013-06-26 11:40:00,
2013-06-26 06:45:00,64.0,61.0,29.42,SW,225,0.0,0.0,90,0.00,,,-99.99,VWS V12.07,2013-06-26 11:45:00,
2013-06-26 06:50:00,64.2,61.2,29.42,SW,225,0.0,0.0,90,0.00,,,-99.99,VWS V12.07,2013-06-26 11:50:00,
2013-06-26 06:55:00,64.2,61.2,29.42,SW,225,0.0,0.0,90,0.00,,,-99.99,VWS V12.07,2013-06-26 11:55:00,
2013-06-26 07:05:00,64.9,61.9,29.42,SW,225,0.0,0.0,90,0.00,,,-99.99,VWS V12.07,2013-06-26 12:05:00,
2013-06-26 07:10:00,64.9,61.9,29.42,SW,225,0.0,0.0,90,0.00,,,-99.99,VWS V12.07,2013-06-26 12:10:00,
2013-06-26 07:15:00,65.1,62.1,29.42,SW,225,0.0,0.0,90,0.00,,,-99.99,VWS V12.07,2013-06-26 12:15:00,
2013-06-26 07:20:00,65.4,62.4,29.42,SW,225,0.0,0.0,90,0.00,,,-99.99,VWS V12.07,2013-06-26 12:20:00,
2013-06-26 07:25:00,65.8,62.8,29.41,SW,225,0.0,0.0,90,0.00,,,-99.99,VWS V12.07,2013-06-26 12:25:00,
2013-06-26 07:30:00,66.0,63.0,29.42,SW,225,0.0,0.0,90,0.00,,,-99.99,VWS V12.07,2013-06-26 12:30:00,
2013-06-26 07:35:00,66.3,63.6,29.41,SW,225,0.0,0.0,91,0.00,,,-99.99,VWS V12.07,2013-06-26 12:35:00,
2013-06-26 07:40:00,66.3,63.6,29.41,SW,225,0.0,0.0,91,0.00,,,-99.99,VWS V12.07,2013-06-26 12:40:00,
2013-06-26 07:45:00,66.7,64.0,29.41,SW,225,0.0,0.0,91,0.00,,,-99.99,VWS V12.07,2013-06-26 12:45:00,
2013-06-26 07:55:00,66.9,64.2,29.41,SW,225,0.0,0.0,91,0.00,,,-99.99,VWS V12.07,2013-06-26 12:55:00,
2013-06-26 08:00:00,67.1,64.4,29.41,SW,225,0.0,0.0,91,0.00,,,-99.99,VWS V12.07,2013-06-26 13:00:00,
2013-06-26 08:05:00,67.6,64.9,29.41,SW,225,0.0,0.0,91,0.00,,,-99.99,VWS V12.07,2013-06-26 13:05:00,
2013-06-26 08:10:00,67.8,65.1,29.41,SW,225,0.8,0.8,91,0.00,,,-99.99,VWS V12.07,2013-06-26 13:10:00,
2013-06-26 08:15:00,67.8,65.1,29.41,SW,225,0.0,0.8,91,0.00,,,-99.99,VWS V12.07,2013-06-26 13:15:00,
2013-06-26 08:20:00,68.1,65.4,29.41,SW,225,0.0,0.0,91,0.00,,,-99.99,VWS V12.07,2013-06-26 13:20:00,
2013-06-26 08:25:00,68.5,65.8,29.40,SW,225,0.0,0.0,91,0.00,,,-99.99,VWS V12.07,2013-06-26 13:25:00,
2013-06-26 08:30:00,68.7,66.0,29.40,SW,225,0.0,0.0,91,0.00,,,-99.99,VWS V12.07,2013-06-26 13:30:00,
2013-06-26 08:35:00,69.2,66.5,29.40,SW,225,0.0,0.0,91,0.00,,,-99.99,VWS V12.07,2013-06-26 13:35:00,
2013-06-26 08:40:00,69.4,66.7,29.41,SW,225,0.0,0.0,91,0.00,,,-99.99,VWS V12.07,2013-06-26 13:40:00,
2013-06-26 08:45:00,69.8,67.1,29.40,SW,225,0.0,0.0,91,0.00,,,-99.99,VWS V12.07,2013-06-26 13:45:00,
2013-06-26 08:50:00,70.3,67.6,29.40,SW,225,0.0,0.0,91,0.00,,,-99.99,VWS V12.07,2013-06-26 13:50:00,
2013-06-26 08:55:00,70.7,68.3,29.40,WSW,248,0.0,0.0,92,0.00,,,-99.99,VWS V12.07,2013-06-26 13:55:00,
2013-06-26 09:00:00,71.2,68.4,29.39,WSW,248,0.0,0.0,91,0.00,,,-99.99,VWS V12.07,2013-06-26 14:00:00,
2013-06-26 09:05:00,71.7,68.9,29.39,NE,45,0.0,0.0,91,0.00,,,-99.99,VWS V12.07,2013-06-26 14:05:00,
2013-06-26 09:10:00,72.3,69.5,29.39,SSW,202,0.0,0.0,91,0.00,,,-99.99,VWS V12.07,2013-06-26 14:10:00,
2013-06-26 09:20:00,73.2,70.4,29.40,SSW,202,0.0,0.0,91,0.00,,,-99.99,VWS V12.07,2013-06-26 14:20:00,
2013-06-26 09:25:00,73.5,70.4,29.40,SSW,202,0.0,0.0,90,0.00,,,-99.99,VWS V12.07,2013-06-26 14:25:00,
2013-06-26 09:30:00,73.9,70.8,29.40,SSW,202,5.5,5.5,90,0.00,,,-99.99,VWS V12.07,2013-06-26 14:30:00,
2013-06-26 09:40:00,74.8,71.0,29.40,SSW,202,4.6,4.6,88,0.00,,,-99.99,VWS V12.07,2013-06-26 14:40:00,
2013-06-26 09:45:00,75.3,71.2,29.40,SSW,202,0.0,4.6,87,0.00,,,-99.99,VWS V12.07,2013-06-26 14:45:00,
2013-06-26 09:50:00,75.5,71.0,29.40,SSW,202,0.0,0.0,86,0.00,,,-99.99,VWS V12.07,2013-06-26 14:50:00,
2013-06-26 09:55:00,75.7,70.9,29.40,SSW,202,0.0,0.0,85,0.00,,,-99.99,VWS V12.07,2013-06-26 14:55:00,
2013-06-26 10:00:00,76.2,71.0,29.40,SSW,202,3.3,4.2,84,0.00,,,-99.99,VWS V12.07,2013-06-26 15:00:00,
2013-06-26 10:05:00,76.2,70.7,29.40,SSW,202,2.6,3.3,83,0.00,,,-99.99,VWS V12.07,2013-06-26 15:05:00,
2013-06-26 10:10:00,76.2,70.3,29.40,SW,225,2.6,4.9,82,0.00,,,-99.99,VWS V12.07,2013-06-26 15:10:00,
2013-06-26 10:15:00,76.1,70.2,29.40,SW,225,3.3,4.9,82,0.00,,,-99.99,VWS V12.07,2013-06-26 15:15:00,
2013-06-26 10:20:00,76.1,70.2,29.40,SW,225,7.1,7.1,82,0.00,,,-99.99,VWS V12.07,2013-06-26 15:20:00,
2013-06-26 10:25:00,76.2,70.3,29.41,SW,225,0.0,7.1,82,0.00,,,-99.99,VWS V12.07,2013-06-26 15:25:00,
2013-06-26 10:30:00,76.2,69.9,29.40,SSW,202,7.1,7.1,81,0.00,,,-99.99,VWS V12.07,2013-06-26 15:30:00,
2013-06-26 10:35:00,76.4,69.8,29.40,SSW,202,3.3,13.8,80,0.00,,,-99.99,VWS V12.07,2013-06-26 15:35:00,
2013-06-26 10:40:00,76.2,69.6,29.40,SSW,202,5.8,13.8,80,0.00,,,-99.99,VWS V12.07,2013-06-26 15:40:00,
2013-06-26 10:45:00,76.2,69.6,29.40,SW,225,0.0,13.8,80,0.00,,,-99.99,VWS V12.07,2013-06-26 15:45:00,
2013-06-26 10:50:00,76.6,70.0,29.40,SW,225,0.8,2.0,80,0.00,,,-99.99,VWS V12.07,2013-06-26 15:50:00,
2013-06-26 10:55:00,76.8,70.2,29.41,SW,225,6.4,6.4,80,0.00,,,-99.99,VWS V12.07,2013-06-26 15:55:00,
2013-06-26 11:00:00,76.8,69.8,29.41,SSW,202,3.8,6.4,79,0.00,,,-99.99,VWS V12.07,2013-06-26 16:00:00,
2013-06-26 11:05:00,76.8,69.8,29.41,SSW,202,0.0,5.3,79,0.00,,,-99.99,VWS V12.07,2013-06-26 16:05:00,
2013-06-26 11:10:00,77.1,70.1,29.40,SSW,202,1.3,5.3,79,0.00,,,-99.99,VWS V12.07,2013-06-26 16:10:00,
2013-06-26 11:15:00,77.5,70.1,29.41,SSW,202,0.0,5.3,78,0.00,,,-99.99,VWS V12.07,2013-06-26 16:15:00,
2013-06-26 11:20:00,77.7,70.3,29.41,SW,225,1.7,2.0,78,0.00,,,-99.99,VWS V12.07,2013-06-26 16:20:00,
2013-06-26 11:25:00,77.9,70.5,29.40,SSW,202,4.0,4.0,78,0.00,,,-99.99,VWS V12.07,2013-06-26 16:25:00,
2013-06-26 11:30:00,78.0,70.2,29.41,SW,225,3.5,4.0,77,0.00,,,-99.99,VWS V12.07,2013-06-26 16:30:00,
2013-06-26 11:35:00,78.2,70.0,29.41,SSW,202,5.8,5.8,76,0.00,,,-99.99,VWS V12.07,2013-06-26 16:35:00,
2013-06-26 11:40:00,78.2,70.0,29.41,SW,225,0.0,5.8,76,0.00,,,-99.99,VWS V12.07,2013-06-26 16:40:00,
2013-06-26 11:45:00,78.0,69.8,29.41,SSW,202,3.3,5.8,76,0.00,,,-99.99,VWS V12.07,2013-06-26 16:45:00,
2013-06-26 11:50:00,78.0,69.8,29.41,SSW,202,2.0,7.8,76,0.00,,,-99.99,VWS V12.07,2013-06-26 16:50:00,
2013-06-26 11:55:00,77.9,69.7,29.41,SSW,202,5.8,7.8,76,0.00,,,-99.99,VWS V12.07,2013-06-26 16:55:00,
2013-06-26 12:00:00,77.7,69.5,29.41,SSW,202,6.0,7.8,76,0.00,,,-99.99,VWS V12.07,2013-06-26 17:00:00,
2013-06-26 12:05:00,77.7,69.9,29.41,SSW,202,4.6,6.0,77,0.00,,,-99.99,VWS V12.07,2013-06-26 17:05:00,
2013-06-26 12:10:00,77.7,69.9,29.41,SSW,202,4.4,6.0,77,0.00,,,-99.99,VWS V12.07,2013-06-26 17:10:00,
2013-06-26 12:15:00,78.0,70.2,29.40,SSW,202,4.9,6.0,77,0.00,,,-99.99,VWS V12.07,2013-06-26 17:15:00,
2013-06-26 12:20:00,78.4,70.2,29.40,SSW,202,0.0,4.9,76,0.00,,,-99.99,VWS V12.07,2013-06-26 17:20:00,
2013-06-26 12:25:00,78.6,70.4,29.40,SW,225,5.1,5.1,76,0.00,,,-99.99,VWS V12.07,2013-06-26 17:25:00,
2013-06-26 12:30:00,78.6,70.0,29.40,SW,225,0.0,5.1,75,0.00,,,-99.99,VWS V12.07,2013-06-26 17:30:00,
2013-06-26 12:40:00,78.6,70.0,29.40,SSW,202,0.0,6.0,75,0.00,,,-99.99,VWS V12.07,2013-06-26 17:40:00,
2013-06-26 12:45:00,78.4,69.8,29.40,SSW,202,0.0,6.0,75,0.00,,,-99.99,VWS V12.07,2013-06-26 17:45:00,
2013-06-26 12:50:00,78.6,70.0,29.40,SSW,202,3.5,3.5,75,0.00,,,-99.99,VWS V12.07,2013-06-26 17:50:00,
2013-06-26 12:55:00,78.6,70.0,29.40,SSW,202,0.0,3.5,75,0.00,,,-99.99,VWS V12.07,2013-06-26 17:55:00,
2013-06-26 13:00:00,78.6,70.0,29.39,SSW,202,2.0,4.4,75,0.00,,,-99.99,VWS V12.07,2013-06-26 18:00:00,
2013-06-26 13:05:00,78.6,70.0,29.39,SSW,202,6.2,6.2,75,0.00,,,-99.99,VWS V12.07,2013-06-26 18:05:00,
2013-06-26 13:10:00,78.6,69.6,29.39,SSW,202,2.2,6.2,74,0.00,,,-99.99,VWS V12.07,2013-06-26 18:10:00,
2013-06-26 13:20:00,79.3,70.7,29.38,SSW,202,2.9,2.9,75,0.00,,,-99.99,VWS V12.07,2013-06-26 18:20:00,
2013-06-26 13:25:00,79.5,70.5,29.38,SSE,158,3.8,3.8,74,0.00,,,-99.99,VWS V12.07,2013-06-26 18:25:00,
2013-06-26 13:30:00,79.5,70.1,29.38,WSW,248,7.1,7.1,73,0.00,,,-99.99,VWS V12.07,2013-06-26 18:30:00,
2013-06-26 13:35:00,79.8,70.0,29.38,NW,315,0.0,7.1,72,0.00,,,-99.99,VWS V12.07,2013-06-26 18:35:00,
2013-06-26 13:40:00,80.0,70.2,29.38,SSW,202,4.2,7.1,72,0.00,,,-99.99,VWS V12.07,2013-06-26 18:40:00,
2013-06-26 13:45:00,80.4,70.6,29.38,SSW,202,3.5,7.1,72,0.00,,,-99.99,VWS V12.07,2013-06-26 18:45:00,
2013-06-26 13:50:00,80.4,70.6,29.38,SW,225,2.2,3.5,72,0.00,,,-99.99,VWS V12.07,2013-06-26 18:50:00,
2013-06-26 13:55:00,80.4,70.1,29.38,SSW,202,2.4,3.5,71,0.00,,,-99.99,VWS V12.07,2013-06-26 18:55:00,
2013-06-26 14:00:00,80.6,69.9,29.38,SW,225,4.4,5.3,70,0.00,,,-99.99,VWS V12.07,2013-06-26 19:00:00,
2013-06-26 14:05:00,80.6,69.9,29.39,SSW,202,6.0,6.0,70,0.00,,,-99.99,VWS V12.07,2013-06-26 19:05:00,
2013-06-26 14:10:00,80.6,69.9,29.39,SSW,202,2.4,6.0,70,0.00,,,-99.99,VWS V12.07,2013-06-26 19:10:00,
2013-06-26 14:15:00,80.7,70.0,29.39,SSW,202,5.5,6.2,70,0.00,,,-99.99,VWS V12.07,2013-06-26 19:15:00,
2013-06-26 14:20:00,80.9,69.8,29.39,SSW,202,4.4,5.5,69,0.00,,,-99.99,VWS V12.07,2013-06-26 19:20:00,
2013-06-26 14:25:00,80.9,70.2,29.39,SSW,202,3.3,5.5,70,0.00,,,-99.99,VWS V12.07,2013-06-26 19:25:00,
2013-06-26 14:35:00,80.9,69.8,29.38,SW,225,4.6,4.6,69,0.00,,,-99.99,VWS V12.07,2013-06-26 19:35:00,
2013-06-26 14:40:00,80.9,69.8,29.38,SSW,202,3.1,4.6,69,0.00,,,-99.99,VWS V12.07,2013-06-26 19:40:00,
2013-06-26 14:45:00,80.9,69.8,29.38,SW,225,3.8,4.6,69,0.00,,,-99.99,VWS V12.07,2013-06-26 19:45:00,
2013-06-26 14:50:00,80.7,69.6,29.38,SW,225,2.9,3.8,69,0.00,,,-99.99,VWS V12.07,2013-06-26 19:50:00,
2013-06-26 14:55:00,80.6,69.5,29.37,SW,225,0.0,3.8,69,0.00,,,-99.99,VWS V12.07,2013-06-26 19:55:00,
2013-06-26 15:00:00,80.4,69.7,29.38,SSW,202,0.6,3.8,70,0.00,,,-99.99,VWS V12.07,2013-06-26 20:00:00,
2013-06-26 15:05:00,80.6,69.9,29.37,SW,225,0.0,2.4,70,0.00,,,-99.99,VWS V12.07,2013-06-26 20:05:00,
2013-06-26 15:10:00,80.7,70.0,29.37,SSW,202,0.8,2.4,70,0.00,,,-99.99,VWS V12.07,2013-06-26 20:10:00,
2013-06-26 15:15:00,80.9,69.8,29.37,SSW,202,0.0,3.8,69,0.00,,,-99.99,VWS V12.07,2013-06-26 20:15:00,
2013-06-26 15:20:00,81.1,70.0,29.37,SSW,202,4.4,4.4,69,0.00,,,-99.99,VWS V12.07,2013-06-26 20:20:00,
2013-06-26 15:25:00,81.3,70.2,29.37,SSW,202,0.0,4.4,69,0.00,,,-99.99,VWS V12.07,2013-06-26 20:25:00,
2013-06-26 15:30:00,81.5,70.4,29.38,SSW,202,5.1,5.1,69,0.00,,,-99.99,VWS V12.07,2013-06-26 20:30:00,
2013-06-26 15:35:00,81.6,70.4,29.37,SSW,202,1.1,6.2,69,0.00,,,-99.99,VWS V12.07,2013-06-26 20:35:00,
2013-06-26 15:40:00,81.6,70.0,29.38,SSW,202,0.0,6.2,68,0.00,,,-99.99,VWS V12.07,2013-06-26 20:40:00,
2013-06-26 15:45:00,82.0,70.4,29.37,SW,225,5.1,6.2,68,0.00,,,-99.99,VWS V12.07,2013-06-26 20:45:00,
2013-06-26 15:50:00,82.2,70.2,29.37,SSW,202,7.1,7.1,67,0.00,,,-99.99,VWS V12.07,2013-06-26 20:50:00,
2013-06-26 15:55:00,82.2,69.7,29.37,SSW,202,0.0,7.1,66,0.00,,,-99.99,VWS V12.07,2013-06-26 20:55:00,
2013-06-26 16:00:00,82.2,70.2,29.37,SSW,202,5.8,7.1,67,0.00,,,-99.99,VWS V12.07,2013-06-26 21:00:00,
2013-06-26 16:05:00,82.2,69.7,29.37,SSW,202,2.4,5.8,66,0.00,,,-99.99,VWS V12.07,2013-06-26 21:05:00,
2013-06-26 16:10:00,82.2,70.2,29.37,SSW,202,2.0,5.8,67,0.00,,,-99.99,VWS V12.07,2013-06-26 21:10:00,
2013-06-26 16:15:00,82.4,69.9,29.37,SSW,202,3.1,6.0,66,0.00,,,-99.99,VWS V12.07,2013-06-26 21:15:00,
2013-06-26 16:20:00,82.2,69.7,29.37,SSW,202,0.0,3.1,66,0.00,,,-99.99,VWS V12.07,2013-06-26 21:20:00,
2013-06-26 16:25:00,82.0,69.5,29.37,SSW,202,2.6,3.1,66,0.00,,,-99.99,VWS V12.07,2013-06-26 21:25:00,
2013-06-26 16:30:00,81.6,69.2,29.36,SSW,202,0.0,3.8,66,0.00,,,-99.99,VWS V12.07,2013-06-26 21:30:00,
2013-06-26 16:35:00,81.6,69.6,29.36,SSW,202,3.8,3.8,67,0.00,,,-99.99,VWS V12.07,2013-06-26 21:35:00,
2013-06-26 16:40:00,81.6,69.6,29.36,SSW,202,0.6,6.4,67,0.00,,,-99.99,VWS V12.07,2013-06-26 21:40:00,
2013-06-26 16:45:00,82.0,69.5,29.36,NW,315,0.0,6.4,66,0.00,,,-99.99,VWS V12.07,2013-06-26 21:45:00,
2013-06-26 16:50:00,82.0,69.5,29.36,SSW,202,1.3,2.4,66,0.00,,,-99.99,VWS V12.07,2013-06-26 21:50:00,
2013-06-26 16:55:00,82.0,69.5,29.36,SSW,202,2.9,2.9,66,0.00,,,-99.99,VWS V12.07,2013-06-26 21:55:00,
2013-06-26 17:00:00,82.2,69.3,29.37,SW,225,0.8,2.9,65,0.00,,,-99.99,VWS V12.07,2013-06-26 22:00:00,
2013-06-26 17:10:00,82.0,69.1,29.37,WSW,248,0.0,2.0,65,0.00,,,-99.99,VWS V12.07,2013-06-26 22:10:00,
2013-06-26 17:15:00,81.5,69.1,29.37,WSW,248,0.0,2.0,66,0.00,,,-99.99,VWS V12.07,2013-06-26 22:15:00,
2013-06-26 17:20:00,81.3,68.9,29.37,WSW,248,3.1,3.1,66,0.00,,,-99.99,VWS V12.07,2013-06-26 22:20:00,
2013-06-26 17:25:00,80.9,68.9,29.36,WSW,248,0.0,3.1,67,0.00,,,-99.99,VWS V12.07,2013-06-26 22:25:00,
2013-06-26 17:30:00,80.7,69.2,29.35,WSW,248,0.0,3.1,68,0.00,,,-99.99,VWS V12.07,2013-06-26 22:30:00,
2013-06-26 17:35:00,80.4,68.9,29.34,WSW,248,0.0,0.0,68,0.00,,,-99.99,VWS V12.07,2013-06-26 22:35:00,
2013-06-26 17:40:00,80.2,69.1,29.34,WSW,248,0.6,0.6,69,0.00,,,-99.99,VWS V12.07,2013-06-26 22:40:00,
2013-06-26 17:45:00,79.5,68.9,29.35,WSW,248,0.0,0.6,70,0.00,,,-99.99,VWS V12.07,2013-06-26 22:45:00,
2013-06-26 17:50:00,79.3,69.1,29.36,WSW,248,0.0,0.0,71,0.00,,,-99.99,VWS V12.07,2013-06-26 22:50:00,
2013-06-26 17:55:00,78.9,68.7,29.36,WSW,248,0.0,0.0,71,0.00,,,-99.99,VWS V12.07,2013-06-26 22:55:00,
2013-06-26 18:00:00,78.4,68.6,29.37,WSW,248,0.0,0.0,72,0.00,,,-99.99,VWS V12.07,2013-06-26 23:00:00,
2013-06-26 18:10:00,77.1,66.2,29.41,SW,225,1.3,11.8,69,0.00,,,-99.99,VWS V12.07,2013-06-26 23:10:00,
2013-06-26 18:15:00,75.0,63.7,29.40,NNE,22,3.5,11.8,68,0.00,,,-99.99,VWS V12.07,2013-06-26 23:15:00,
2013-06-26 18:20:00,73.2,62.8,29.41,WSW,248,0.0,4.9,70,0.00,,,-99.99,VWS V12.07,2013-06-26 23:20:00,
2013-06-26 18:25:00,71.6,62.1,29.43,NNE,22,0.0,4.9,72,0.08,,,-99.99,VWS V12.07,2013-06-26 23:25:00,
2013-06-26 18:30:00,69.6,61.0,29.44,WSW,248,0.0,4.9,74,0.24,,,-99.99,VWS V12.07,2013-06-26 23:30:00,
2013-06-26 18:35:00,68.5,60.6,29.43,NE,45,0.0,4.0,76,0.26,,,-99.99,VWS V12.07,2013-06-26 23:35:00,
2013-06-26 18:40:00,67.8,60.0,29.40,NE,45,0.0,4.0,76,0.28,,,-99.99,VWS V12.07,2013-06-26 23:40:00,
2013-06-26 18:45:00,66.7,59.6,29.41,NE,45,0.0,4.0,78,0.30,,,-99.99,VWS V12.07,2013-06-26 23:45:00,
2013-06-26 18:50:00,66.3,60.0,29.41,NE,45,0.0,0.0,80,0.30,,,-99.99,VWS V12.07,2013-06-26 23:50:00,
2013-06-26 18:55:00,66.0,59.7,29.42,NE,45,0.0,0.0,80,0.30,,,-99.99,VWS V12.07,2013-06-26 23:55:00,
2013-06-26 19:05:00,65.3,59.3,29.40,NE,45,0.0,0.0,81,0.30,,,-99.99,VWS V12.07,2013-06-27 00:05:00,
2013-06-26 19:10:00,65.1,59.1,29.38,NE,45,0.0,0.0,81,0.30,,,-99.99,VWS V12.07,2013-06-27 00:10:00,
2013-06-26 19:15:00,64.9,59.3,29.37,NE,45,0.0,0.0,82,0.30,,,-99.99,VWS V12.07,2013-06-27 00:15:00,
2013-06-26 19:20:00,64.9,59.6,29.37,NE,45,0.0,0.0,83,0.30,,,-99.99,VWS V12.07,2013-06-27 00:20:00,
2013-06-26 19:25:00,64.7,59.4,29.37,NE,45,0.0,0.0,83,0.08,,,-99.99,VWS V12.07,2013-06-27 00:25:00,
2013-06-26 19:30:00,64.5,59.2,29.37,NE,45,0.0,0.0,83,0.04,,,-99.99,VWS V12.07,2013-06-27 00:30:00,
2013-06-26 19:35:00,64.5,59.6,29.37,NE,45,0.2,0.2,84,0.04,,,-99.99,VWS V12.07,2013-06-27 00:35:00,
2013-06-26 19:40:00,64.4,59.8,29.38,NE,45,0.0,0.2,85,0.00,,,-99.99,VWS V12.07,2013-06-27 00:40:00,
2013-06-26 19:45:00,64.2,59.6,29.38,NE,45,0.0,0.2,85,0.00,,,-99.99,VWS V12.07,2013-06-27 00:45:00,
2013-06-26 19:50:00,64.2,59.6,29.38,NE,45,0.0,0.0,85,0.00,,,-99.99,VWS V12.07,2013-06-27 00:50:00,
2013-06-26 19:55:00,64.2,59.6,29.39,NE,45,0.0,0.0,85,0.00,,,-99.99,VWS V12.07,2013-06-27 00:55:00,
2013-06-26 20:00:00,64.2,59.9,29.39,NE,45,0.0,1.1,86,0.00,,,-99.99,VWS V12.07,2013-06-27 01:00:00,
2013-06-26 20:05:00,64.2,59.9,29.39,NE,45,0.0,0.0,86,0.00,,,-99.99,VWS V12.07,2013-06-27 01:05:00,
2013-06-26 20:10:00,64.2,59.9,29.39,NE,45,0.0,0.0,86,0.00,,,-99.99,VWS V12.07,2013-06-27 01:10:00,
2013-06-26 20:15:00,64.2,60.3,29.40,NE,45,0.0,0.0,87,0.00,,,-99.99,VWS V12.07,2013-06-27 01:15:00,
2013-06-26 20:20:00,64.2,60.3,29.39,NE,45,0.0,0.0,87,0.00,,,-99.99,VWS V12.07,2013-06-27 01:20:00,
2013-06-26 20:25:00,64.2,60.3,29.40,NE,45,0.0,0.0,87,0.00,,,-99.99,VWS V12.07,2013-06-27 01:25:00,
2013-06-26 20:30:00,64.4,60.5,29.40,NE,45,0.0,0.0,87,0.00,,,-99.99,VWS V12.07,2013-06-27 01:30:00,
2013-06-26 20:35:00,64.2,60.3,29.40,NE,45,0.0,0.0,87,0.00,,,-99.99,VWS V12.07,2013-06-27 01:35:00,
2013-06-26 20:40:00,64.4,60.5,29.40,NE,45,0.0,0.0,87,0.00,,,-99.99,VWS V12.07,2013-06-27 01:40:00,
2013-06-26 20:45:00,64.2,60.3,29.40,NE,45,0.0,0.0,87,0.00,,,-99.99,VWS V12.07,2013-06-27 01:45:00,
2013-06-26 20:50:00,64.2,60.3,29.40,NE,45,0.0,0.0,87,0.00,,,-99.99,VWS V12.07,2013-06-27 01:50:00,
2013-06-26 20:55:00,64.2,60.3,29.40,NE,45,0.0,0.0,87,0.00,,,-99.99,VWS V12.07,2013-06-27 01:55:00,
2013-06-26 21:00:00,64.2,60.3,29.40,NE,45,0.0,0.0,87,0.00,,,-99.99,VWS V12.07,2013-06-27 02:00:00,
2013-06-26 21:05:00,64.0,60.1,29.40,NE,45,0.0,0.0,87,0.00,,,-99.99,VWS V12.07,2013-06-27 02:05:00,
2013-06-26 21:10:00,64.0,60.1,29.40,NE,45,0.0,0.0,87,0.00,,,-99.99,VWS V12.07,2013-06-27 02:10:00,
2013-06-26 21:15:00,64.0,60.1,29.40,NE,45,0.0,0.0,87,0.00,,,-99.99,VWS V12.07,2013-06-27 02:15:00,
2013-06-26 21:20:00,63.6,59.7,29.40,NE,45,0.0,0.0,87,0.00,,,-99.99,VWS V12.07,2013-06-27 02:20:00,
2013-06-26 21:25:00,63.6,60.0,29.40,NE,45,0.0,0.0,88,0.00,,,-99.99,VWS V12.07,2013-06-27 02:25:00,
2013-06-26 21:30:00,63.6,60.0,29.41,NE,45,0.0,0.0,88,0.00,,,-99.99,VWS V12.07,2013-06-27 02:30:00,
2013-06-26 21:35:00,63.5,59.9,29.40,NE,45,0.0,0.0,88,0.00,,,-99.99,VWS V12.07,2013-06-27 02:35:00,
2013-06-26 21:40:00,63.5,59.9,29.40,NE,45,0.0,0.0,88,0.00,,,-99.99,VWS V12.07,2013-06-27 02:40:00,
2013-06-26 21:45:00,63.5,59.9,29.41,NE,45,0.0,0.0,88,0.00,,,-99.99,VWS V12.07,2013-06-27 02:45:00,
2013-06-26 21:55:00,63.5,59.9,29.41,NE,45,0.0,0.0,88,0.00,,,-99.99,VWS V12.07,2013-06-27 02:55:00,
2013-06-26 22:00:00,63.5,59.9,29.41,NE,45,0.0,0.0,88,0.00,,,-99.99,VWS V12.07,2013-06-27 03:00:00,
2013-06-26 22:05:00,63.5,59.9,29.41,NE,45,0.0,0.0,88,0.00,,,-99.99,VWS V12.07,2013-06-27 03:05:00,
2013-06-26 22:10:00,63.6,60.3,29.42,NE,45,0.0,0.0,89,0.00,,,-99.99,VWS V12.07,2013-06-27 03:10:00,
2013-06-26 22:15:00,63.6,60.3,29.42,ESE,112,0.0,0.0,89,0.04,,,-99.99,VWS V12.07,2013-06-27 03:15:00,
2013-06-26 22:20:00,63.6,60.3,29.42,ESE,112,0.0,0.0,89,0.04,,,-99.99,VWS V12.07,2013-06-27 03:20:00,
2013-06-26 22:25:00,63.5,60.2,29.42,ESE,112,0.0,0.0,89,0.08,,,-99.99,VWS V12.07,2013-06-27 03:25:00,
2013-06-26 22:30:00,63.5,60.2,29.42,ESE,112,0.0,0.0,89,0.10,,,-99.99,VWS V12.07,2013-06-27 03:30:00,
2013-06-26 22:35:00,63.5,60.2,29.43,ESE,112,0.0,0.0,89,0.14,,,-99.99,VWS V12.07,2013-06-27 03:35:00,
2013-06-26 22:40:00,63.5,60.2,29.42,ESE,112,0.0,0.0,89,0.16,,,-99.99,VWS V12.07,2013-06-27 03:40:00,
2013-06-26 22:45:00,63.3,60.0,29.42,ESE,112,0.0,0.0,89,0.20,,,-99.99,VWS V12.07,2013-06-27 03:45:00,
2013-06-26 22:50:00,63.3,60.0,29.43,ESE,112,0.0,0.0,89,0.22,,,-99.99,VWS V12.07,2013-06-27 03:50:00,
2013-06-26 22:55:00,63.3,60.0,29.42,ENE,68,0.0,0.8,89,0.22,,,-99.99,VWS V12.07,2013-06-27 03:55:00,
2013-06-26 23:00:00,63.3,60.0,29.42,ENE,68,0.0,0.8,89,0.24,,,-99.99,VWS V12.07,2013-06-27 04:00:00,
2013-06-26 23:05:00,63.3,60.0,29.42,ENE,68,0.0,0.0,89,0.24,,,-99.99,VWS V12.07,2013-06-27 04:05:00,
2013-06-26 23:10:00,63.3,60.3,29.42,ENE,68,0.0,0.0,90,0.22,,,-99.99,VWS V12.07,2013-06-27 04:10:00,
2013-06-26 23:15:00,63.3,60.3,29.42,ENE,68,0.0,0.0,90,0.20,,,-99.99,VWS V12.07,2013-06-27 04:15:00,
2013-06-26 23:20:00,63.3,60.3,29.42,ENE,68,0.0,0.0,90,0.20,,,-99.99,VWS V12.07,2013-06-27 04:20:00,
2013-06-26 23:25:00,63.3,60.3,29.42,ENE,68,0.0,0.0,90,0.16,,,-99.99,VWS V12.07,2013-06-27 04:25:00,
2013-06-26 23:30:00,63.3,60.3,29.42,ENE,68,0.0,0.0,90,0.12,,,-99.99,VWS V12.07,2013-06-27 04:30:00,
2013-06-26 23:35:00,63.3,60.3,29.42,ENE,68,0.0,0.0,90,0.12,,,-99.99,VWS V12.07,2013-06-27 04:35:00,
2013-06-26 23:40:00,63.3,60.3,29.41,ENE,68,0.0,0.0,90,0.18,,,-99.99,VWS V12.07,2013-06-27 04:40:00,
2013-06-26 23:45:00,63.5,60.5,29.42,ENE,68,0.0,0.0,90,0.24,,,-99.99,VWS V12.07,2013-06-27 04:45:00,
2013-06-26 23:50:00,63.5,60.5,29.42,ENE,68,0.0,0.0,90,0.22,,,-99.99,VWS V12.07,2013-06-27 04:50:00,
2013-06-26 23:55:00,63.5,60.5,29.42,ENE,68,0.0,0.0,90,0.22,,,-99.99,VWS V12.07,2013-06-27 04:55:00,